sensor_id;sensor_type;location;lat;lon;timestamp;temperature;humidity
32614;DHT22;19031;51.400;6.770;2022-11-25T00:01:34;7.90;99.90
32614;DHT22;19031;51.400;6.770;2022-11-25T00:03:59;8.00;99.90
32614;DHT22;19031;51.400;6.770;2022-11-25T00:06:26;8.00;99.90
32614;DHT22;19031;51.400;6.770;2022-11-25T00:08:53;8.00;99.90
32614;DHT22;19031;51.400;6.770;2022-11-25T00:11:19;8.10;99.90
32614;DHT22;19031;51.400;6.770;2022-11-25T00:13:44;8.10;99.90
32614;DHT22;19031;51.400;6.770;2022-11-25T00:16:11;8.00;99.90
32614;DHT22;19031;51.400;6.770;2022-11-25T00:18:37;8.10;99.90
32614;DHT22;19031;51.400;6.770;2022-11-25T00:21:13;8.10;99.90
32614;DHT22;19031;51.400;6.770;2022-11-25T00:23:39;8.10;99.90
32614;DHT22;19031;51.400;6.770;2022-11-25T00:26:14;8.10;99.90
32614;DHT22;19031;51.400;6.770;2022-11-25T00:28:40;8.10;99.90
32614;DHT22;19031;51.400;6.770;2022-11-25T00:33:40;8.20;99.90
32614;DHT22;19031;51.400;6.770;2022-11-25T00:36:07;8.10;99.90
32614;DHT22;19031;51.400;6.770;2022-11-25T00:38:35;8.20;99.90
32614;DHT22;19031;51.400;6.770;2022-11-25T00:41:00;8.20;99.90
32614;DHT22;19031;51.400;6.770;2022-11-25T00:43:45;8.30;99.90
32614;DHT22;19031;51.400;6.770;2022-11-25T00:46:29;8.20;99.90
32614;DHT22;19031;51.400;6.770;2022-11-25T00:48:54;8.20;99.90
32614;DHT22;19031;51.400;6.770;2022-11-25T00:51:20;8.20;99.90
32614;DHT22;19031;51.400;6.770;2022-11-25T00:53:45;8.20;99.90
32614;DHT22;19031;51.400;6.770;2022-11-25T00:56:11;8.10;99.90
32614;DHT22;19031;51.400;6.770;2022-11-25T00:58:40;8.10;99.90
32614;DHT22;19031;51.400;6.770;2022-11-25T01:01:05;8.20;99.90
32614;DHT22;19031;51.400;6.770;2022-11-25T01:03:31;8.10;99.90
32614;DHT22;19031;51.400;6.770;2022-11-25T01:05:59;8.20;99.90
32614;DHT22;19031;51.400;6.770;2022-11-25T01:08:25;8.20;99.90
32614;DHT22;19031;51.400;6.770;2022-11-25T01:10:56;8.30;99.90
32614;DHT22;19031;51.400;6.770;2022-11-25T01:13:22;8.30;99.90
32614;DHT22;19031;51.400;6.770;2022-11-25T01:15:47;8.30;99.90
32614;DHT22;19031;51.400;6.770;2022-11-25T01:18:13;8.40;99.90
32614;DHT22;19031;51.400;6.770;2022-11-25T01:20:38;8.40;99.90
32614;DHT22;19031;51.400;6.770;2022-11-25T01:23:04;8.50;99.90
32614;DHT22;19031;51.400;6.770;2022-11-25T01:25:29;8.60;99.90
32614;DHT22;19031;51.400;6.770;2022-11-25T01:27:54;8.60;99.90
32614;DHT22;19031;51.400;6.770;2022-11-25T01:30:20;8.60;99.90
32614;DHT22;19031;51.400;6.770;2022-11-25T01:32:45;8.60;99.90
32614;DHT22;19031;51.400;6.770;2022-11-25T01:35:11;8.70;99.90
32614;DHT22;19031;51.400;6.770;2022-11-25T01:37:36;8.60;99.90
32614;DHT22;19031;51.400;6.770;2022-11-25T01:40:02;8.70;99.90
32614;DHT22;19031;51.400;6.770;2022-11-25T01:42:28;8.80;99.90
32614;DHT22;19031;51.400;6.770;2022-11-25T01:45:21;8.80;99.90
32614;DHT22;19031;51.400;6.770;2022-11-25T01:47:48;8.80;99.90
32614;DHT22;19031;51.400;6.770;2022-11-25T01:50:13;8.80;99.90
32614;DHT22;19031;51.400;6.770;2022-11-25T01:52:43;8.90;99.90
32614;DHT22;19031;51.400;6.770;2022-11-25T02:00:01;8.90;99.90
32614;DHT22;19031;51.400;6.770;2022-11-25T02:02:28;8.90;99.90
32614;DHT22;19031;51.400;6.770;2022-11-25T02:04:54;8.90;99.90
32614;DHT22;19031;51.400;6.770;2022-11-25T02:07:25;8.90;99.90
32614;DHT22;19031;51.400;6.770;2022-11-25T02:09:52;8.90;99.90
32614;DHT22;19031;51.400;6.770;2022-11-25T02:12:18;8.80;99.90
32614;DHT22;19031;51.400;6.770;2022-11-25T02:14:44;9.00;99.90
32614;DHT22;19031;51.400;6.770;2022-11-25T02:17:10;9.00;99.90
32614;DHT22;19031;51.400;6.770;2022-11-25T02:19:42;9.00;99.90
32614;DHT22;19031;51.400;6.770;2022-11-25T02:22:11;9.00;99.90
32614;DHT22;19031;51.400;6.770;2022-11-25T02:24:42;9.10;99.90
32614;DHT22;19031;51.400;6.770;2022-11-25T02:27:08;9.00;99.90
32614;DHT22;19031;51.400;6.770;2022-11-25T02:29:33;9.10;99.90
32614;DHT22;19031;51.400;6.770;2022-11-25T02:31:59;9.20;99.90
32614;DHT22;19031;51.400;6.770;2022-11-25T02:34:24;9.20;99.90
32614;DHT22;19031;51.400;6.770;2022-11-25T02:36:50;9.20;99.90
32614;DHT22;19031;51.400;6.770;2022-11-25T02:39:15;9.20;99.90
32614;DHT22;19031;51.400;6.770;2022-11-25T02:41:43;9.20;99.90
32614;DHT22;19031;51.400;6.770;2022-11-25T02:44:09;9.30;99.90
32614;DHT22;19031;51.400;6.770;2022-11-25T02:46:34;9.30;99.90
32614;DHT22;19031;51.400;6.770;2022-11-25T02:49:00;9.30;99.90
32614;DHT22;19031;51.400;6.770;2022-11-25T02:51:27;9.30;99.90
32614;DHT22;19031;51.400;6.770;2022-11-25T02:53:54;9.30;99.90
32614;DHT22;19031;51.400;6.770;2022-11-25T02:56:21;9.40;99.90
32614;DHT22;19031;51.400;6.770;2022-11-25T02:58:47;9.40;99.90
32614;DHT22;19031;51.400;6.770;2022-11-25T03:01:13;9.40;99.90
32614;DHT22;19031;51.400;6.770;2022-11-25T03:03:38;9.40;99.90
32614;DHT22;19031;51.400;6.770;2022-11-25T03:06:04;9.40;99.90
32614;DHT22;19031;51.400;6.770;2022-11-25T03:08:29;9.40;99.90
32614;DHT22;19031;51.400;6.770;2022-11-25T03:10:55;9.40;99.90
32614;DHT22;19031;51.400;6.770;2022-11-25T03:13:20;9.50;99.90
32614;DHT22;19031;51.400;6.770;2022-11-25T03:15:46;9.50;99.90
32614;DHT22;19031;51.400;6.770;2022-11-25T03:18:11;9.50;99.90
32614;DHT22;19031;51.400;6.770;2022-11-25T03:20:37;9.50;99.90
32614;DHT22;19031;51.400;6.770;2022-11-25T03:23:03;9.50;99.90
32614;DHT22;19031;51.400;6.770;2022-11-25T03:25:29;9.50;99.90
32614;DHT22;19031;51.400;6.770;2022-11-25T03:27:54;9.50;99.90
32614;DHT22;19031;51.400;6.770;2022-11-25T03:30:21;9.60;99.90
32614;DHT22;19031;51.400;6.770;2022-11-25T03:32:46;9.50;99.90
32614;DHT22;19031;51.400;6.770;2022-11-25T03:35:13;9.50;99.90
32614;DHT22;19031;51.400;6.770;2022-11-25T03:37:38;9.60;99.90
32614;DHT22;19031;51.400;6.770;2022-11-25T03:40:05;9.60;99.90
32614;DHT22;19031;51.400;6.770;2022-11-25T03:42:31;9.60;99.90
32614;DHT22;19031;51.400;6.770;2022-11-25T03:44:56;9.70;99.90
32614;DHT22;19031;51.400;6.770;2022-11-25T03:47:22;9.70;99.90
32614;DHT22;19031;51.400;6.770;2022-11-25T03:49:48;9.50;99.90
32614;DHT22;19031;51.400;6.770;2022-11-25T03:52:13;9.60;99.90
32614;DHT22;19031;51.400;6.770;2022-11-25T03:54:39;9.60;99.90
32614;DHT22;19031;51.400;6.770;2022-11-25T03:57:04;9.60;99.90
32614;DHT22;19031;51.400;6.770;2022-11-25T03:59:30;9.60;99.90
32614;DHT22;19031;51.400;6.770;2022-11-25T04:01:55;9.60;99.90
32614;DHT22;19031;51.400;6.770;2022-11-25T04:04:21;9.70;99.90
32614;DHT22;19031;51.400;6.770;2022-11-25T04:06:46;9.60;99.90
32614;DHT22;19031;51.400;6.770;2022-11-25T04:09:12;9.60;99.90
32614;DHT22;19031;51.400;6.770;2022-11-25T04:11:37;9.60;99.90
32614;DHT22;19031;51.400;6.770;2022-11-25T04:14:21;9.50;99.90
32614;DHT22;19031;51.400;6.770;2022-11-25T04:16:47;9.50;99.90
32614;DHT22;19031;51.400;6.770;2022-11-25T04:19:12;9.50;99.90
32614;DHT22;19031;51.400;6.770;2022-11-25T04:21:38;9.40;99.90
32614;DHT22;19031;51.400;6.770;2022-11-25T04:24:03;9.30;99.90
32614;DHT22;19031;51.400;6.770;2022-11-25T04:26:29;9.30;99.90
32614;DHT22;19031;51.400;6.770;2022-11-25T04:28:55;9.30;99.90
32614;DHT22;19031;51.400;6.770;2022-11-25T04:31:20;9.30;99.90
32614;DHT22;19031;51.400;6.770;2022-11-25T04:33:46;9.30;99.90
32614;DHT22;19031;51.400;6.770;2022-11-25T04:36:11;9.30;99.90
32614;DHT22;19031;51.400;6.770;2022-11-25T04:38:37;9.40;99.90
32614;DHT22;19031;51.400;6.770;2022-11-25T04:41:02;9.30;99.90
32614;DHT22;19031;51.400;6.770;2022-11-25T04:43:28;9.20;99.90
32614;DHT22;19031;51.400;6.770;2022-11-25T04:45:53;9.30;99.90
32614;DHT22;19031;51.400;6.770;2022-11-25T04:48:19;9.40;99.90
32614;DHT22;19031;51.400;6.770;2022-11-25T04:50:44;9.30;99.90
32614;DHT22;19031;51.400;6.770;2022-11-25T04:53:10;9.30;99.90
32614;DHT22;19031;51.400;6.770;2022-11-25T04:55:35;9.30;99.90
32614;DHT22;19031;51.400;6.770;2022-11-25T04:58:01;9.20;99.90
32614;DHT22;19031;51.400;6.770;2022-11-25T05:00:27;9.20;99.90
32614;DHT22;19031;51.400;6.770;2022-11-25T05:02:52;9.20;99.90
32614;DHT22;19031;51.400;6.770;2022-11-25T05:05:18;9.20;99.90
32614;DHT22;19031;51.400;6.770;2022-11-25T05:07:43;9.20;99.90
32614;DHT22;19031;51.400;6.770;2022-11-25T05:10:09;9.20;99.90
32614;DHT22;19031;51.400;6.770;2022-11-25T05:12:34;9.20;99.90
32614;DHT22;19031;51.400;6.770;2022-11-25T05:15:00;9.20;99.90
32614;DHT22;19031;51.400;6.770;2022-11-25T05:17:26;9.20;99.90
32614;DHT22;19031;51.400;6.770;2022-11-25T05:19:52;9.20;99.90
32614;DHT22;19031;51.400;6.770;2022-11-25T05:22:19;9.10;99.90
32614;DHT22;19031;51.400;6.770;2022-11-25T05:24:45;9.10;99.90
32614;DHT22;19031;51.400;6.770;2022-11-25T05:27:11;9.20;99.90
32614;DHT22;19031;51.400;6.770;2022-11-25T05:29:36;9.20;99.90
32614;DHT22;19031;51.400;6.770;2022-11-25T05:32:02;9.10;99.90
32614;DHT22;19031;51.400;6.770;2022-11-25T05:34:28;9.10;99.90
32614;DHT22;19031;51.400;6.770;2022-11-25T05:36:53;9.10;99.90
32614;DHT22;19031;51.400;6.770;2022-11-25T05:39:19;9.00;99.90
32614;DHT22;19031;51.400;6.770;2022-11-25T05:41:47;9.10;99.90
32614;DHT22;19031;51.400;6.770;2022-11-25T05:44:13;9.10;99.90
32614;DHT22;19031;51.400;6.770;2022-11-25T05:46:38;9.10;99.90
32614;DHT22;19031;51.400;6.770;2022-11-25T05:49:04;9.10;99.90
32614;DHT22;19031;51.400;6.770;2022-11-25T05:51:29;9.00;99.90
32614;DHT22;19031;51.400;6.770;2022-11-25T05:53:58;9.20;99.90
32614;DHT22;19031;51.400;6.770;2022-11-25T05:56:23;9.10;99.90
32614;DHT22;19031;51.400;6.770;2022-11-25T05:58:49;9.10;99.90
32614;DHT22;19031;51.400;6.770;2022-11-25T06:01:14;9.10;99.90
32614;DHT22;19031;51.400;6.770;2022-11-25T06:03:41;9.10;99.90
32614;DHT22;19031;51.400;6.770;2022-11-25T06:06:07;9.10;99.90
32614;DHT22;19031;51.400;6.770;2022-11-25T06:08:34;9.10;99.90
32614;DHT22;19031;51.400;6.770;2022-11-25T06:11:03;9.10;99.90
32614;DHT22;19031;51.400;6.770;2022-11-25T06:13:28;9.20;99.90
32614;DHT22;19031;51.400;6.770;2022-11-25T06:15:54;9.10;99.90
32614;DHT22;19031;51.400;6.770;2022-11-25T06:18:19;9.20;99.90
32614;DHT22;19031;51.400;6.770;2022-11-25T06:20:45;9.10;99.90
32614;DHT22;19031;51.400;6.770;2022-11-25T06:23:19;9.20;99.90
32614;DHT22;19031;51.400;6.770;2022-11-25T06:25:45;9.10;99.90
32614;DHT22;19031;51.400;6.770;2022-11-25T06:28:10;9.10;99.90
32614;DHT22;19031;51.400;6.770;2022-11-25T06:30:35;9.20;99.90
32614;DHT22;19031;51.400;6.770;2022-11-25T06:33:01;9.10;99.90
32614;DHT22;19031;51.400;6.770;2022-11-25T06:35:26;9.00;99.90
32614;DHT22;19031;51.400;6.770;2022-11-25T06:37:52;9.00;99.90
32614;DHT22;19031;51.400;6.770;2022-11-25T06:40:17;9.00;99.90
32614;DHT22;19031;51.400;6.770;2022-11-25T06:42:43;9.00;99.90
32614;DHT22;19031;51.400;6.770;2022-11-25T06:45:08;9.00;99.90
32614;DHT22;19031;51.400;6.770;2022-11-25T06:47:34;9.00;99.90
32614;DHT22;19031;51.400;6.770;2022-11-25T06:49:59;9.10;99.90
32614;DHT22;19031;51.400;6.770;2022-11-25T06:52:25;9.00;99.90
32614;DHT22;19031;51.400;6.770;2022-11-25T06:54:50;9.00;99.90
32614;DHT22;19031;51.400;6.770;2022-11-25T06:57:16;9.00;99.90
32614;DHT22;19031;51.400;6.770;2022-11-25T06:59:42;9.00;99.90
32614;DHT22;19031;51.400;6.770;2022-11-25T07:02:09;9.00;99.90
32614;DHT22;19031;51.400;6.770;2022-11-25T07:04:35;9.10;99.90
32614;DHT22;19031;51.400;6.770;2022-11-25T07:07:00;9.00;99.90
32614;DHT22;19031;51.400;6.770;2022-11-25T07:09:26;9.00;99.90
32614;DHT22;19031;51.400;6.770;2022-11-25T07:11:51;9.00;99.90
32614;DHT22;19031;51.400;6.770;2022-11-25T07:14:17;9.10;99.90
32614;DHT22;19031;51.400;6.770;2022-11-25T07:16:43;9.10;99.90
32614;DHT22;19031;51.400;6.770;2022-11-25T07:19:10;9.00;99.90
32614;DHT22;19031;51.400;6.770;2022-11-25T07:21:36;9.00;99.90
32614;DHT22;19031;51.400;6.770;2022-11-25T07:24:02;8.90;99.90
32614;DHT22;19031;51.400;6.770;2022-11-25T07:26:29;9.00;99.90
32614;DHT22;19031;51.400;6.770;2022-11-25T07:28:57;8.90;99.90
32614;DHT22;19031;51.400;6.770;2022-11-25T07:31:24;8.80;99.90
32614;DHT22;19031;51.400;6.770;2022-11-25T07:33:50;8.60;99.90
32614;DHT22;19031;51.400;6.770;2022-11-25T07:36:16;8.50;99.90
32614;DHT22;19031;51.400;6.770;2022-11-25T07:38:42;8.50;99.90
32614;DHT22;19031;51.400;6.770;2022-11-25T07:43:33;8.50;99.90
32614;DHT22;19031;51.400;6.770;2022-11-25T07:46:09;8.50;99.90
32614;DHT22;19031;51.400;6.770;2022-11-25T07:48:34;8.50;99.90
32614;DHT22;19031;51.400;6.770;2022-11-25T07:51:00;8.50;99.90
32614;DHT22;19031;51.400;6.770;2022-11-25T07:53:25;8.50;99.90
32614;DHT22;19031;51.400;6.770;2022-11-25T07:55:51;8.50;99.90
32614;DHT22;19031;51.400;6.770;2022-11-25T07:58:16;8.50;99.90
32614;DHT22;19031;51.400;6.770;2022-11-25T08:00:41;8.50;99.90
32614;DHT22;19031;51.400;6.770;2022-11-25T08:03:07;8.50;99.90
32614;DHT22;19031;51.400;6.770;2022-11-25T08:05:32;8.60;99.90
32614;DHT22;19031;51.400;6.770;2022-11-25T08:07:58;8.60;99.90
32614;DHT22;19031;51.400;6.770;2022-11-25T08:10:23;8.70;99.90
32614;DHT22;19031;51.400;6.770;2022-11-25T08:12:49;8.70;99.90
32614;DHT22;19031;51.400;6.770;2022-11-25T08:15:14;8.70;99.90
32614;DHT22;19031;51.400;6.770;2022-11-25T08:17:40;8.60;99.90
32614;DHT22;19031;51.400;6.770;2022-11-25T08:20:05;8.70;99.90
32614;DHT22;19031;51.400;6.770;2022-11-25T08:22:31;8.70;99.90
32614;DHT22;19031;51.400;6.770;2022-11-25T08:24:56;8.70;99.90
32614;DHT22;19031;51.400;6.770;2022-11-25T08:27:22;8.70;99.90
32614;DHT22;19031;51.400;6.770;2022-11-25T08:29:47;8.70;99.90
32614;DHT22;19031;51.400;6.770;2022-11-25T08:32:13;8.60;99.90
32614;DHT22;19031;51.400;6.770;2022-11-25T08:34:38;8.70;99.90
32614;DHT22;19031;51.400;6.770;2022-11-25T08:37:04;8.70;99.90
32614;DHT22;19031;51.400;6.770;2022-11-25T08:39:29;8.70;99.90
32614;DHT22;19031;51.400;6.770;2022-11-25T08:41:55;8.80;99.90
32614;DHT22;19031;51.400;6.770;2022-11-25T08:44:20;8.70;99.90
32614;DHT22;19031;51.400;6.770;2022-11-25T08:46:46;8.80;99.90
32614;DHT22;19031;51.400;6.770;2022-11-25T08:49:11;8.70;99.90
32614;DHT22;19031;51.400;6.770;2022-11-25T08:51:37;8.60;99.90
32614;DHT22;19031;51.400;6.770;2022-11-25T08:54:04;8.70;99.90
32614;DHT22;19031;51.400;6.770;2022-11-25T08:56:30;8.70;99.90
32614;DHT22;19031;51.400;6.770;2022-11-25T08:58:55;8.70;99.90
32614;DHT22;19031;51.400;6.770;2022-11-25T09:01:21;8.70;99.90
32614;DHT22;19031;51.400;6.770;2022-11-25T09:03:48;8.80;99.90
32614;DHT22;19031;51.400;6.770;2022-11-25T09:06:15;8.80;99.90
32614;DHT22;19031;51.400;6.770;2022-11-25T09:08:41;8.80;99.90
32614;DHT22;19031;51.400;6.770;2022-11-25T09:11:07;8.90;99.90
32614;DHT22;19031;51.400;6.770;2022-11-25T09:13:32;8.90;99.90
32614;DHT22;19031;51.400;6.770;2022-11-25T09:15:58;9.00;99.90
32614;DHT22;19031;51.400;6.770;2022-11-25T09:18:25;9.10;99.90
32614;DHT22;19031;51.400;6.770;2022-11-25T09:20:51;9.10;99.90
32614;DHT22;19031;51.400;6.770;2022-11-25T09:23:17;9.30;99.90
32614;DHT22;19031;51.400;6.770;2022-11-25T09:25:50;9.40;99.90
32614;DHT22;19031;51.400;6.770;2022-11-25T09:28:16;9.50;99.90
32614;DHT22;19031;51.400;6.770;2022-11-25T09:30:42;9.60;99.90
32614;DHT22;19031;51.400;6.770;2022-11-25T09:33:07;9.70;99.90
32614;DHT22;19031;51.400;6.770;2022-11-25T09:35:33;9.80;99.90
32614;DHT22;19031;51.400;6.770;2022-11-25T09:37:58;9.90;99.90
32614;DHT22;19031;51.400;6.770;2022-11-25T09:40:42;10.00;99.90
32614;DHT22;19031;51.400;6.770;2022-11-25T09:46:13;10.00;99.90
32614;DHT22;19031;51.400;6.770;2022-11-25T09:52:18;10.10;99.90
32614;DHT22;19031;51.400;6.770;2022-11-25T09:54:27;10.20;99.90
32614;DHT22;19031;51.400;6.770;2022-11-25T09:56:55;10.20;99.90
32614;DHT22;19031;51.400;6.770;2022-11-25T09:59:32;10.20;99.90
32614;DHT22;19031;51.400;6.770;2022-11-25T10:02:02;10.30;99.90
32614;DHT22;19031;51.400;6.770;2022-11-25T10:04:31;10.40;99.90
32614;DHT22;19031;51.400;6.770;2022-11-25T10:07:00;10.50;99.90
32614;DHT22;19031;51.400;6.770;2022-11-25T10:09:30;10.80;99.90
32614;DHT22;19031;51.400;6.770;2022-11-25T10:12:02;11.30;99.90
32614;DHT22;19031;51.400;6.770;2022-11-25T10:14:31;12.10;99.90
32614;DHT22;19031;51.400;6.770;2022-11-25T10:17:04;12.80;99.90
32614;DHT22;19031;51.400;6.770;2022-11-25T10:19:39;13.70;99.90
32614;DHT22;19031;51.400;6.770;2022-11-25T10:22:22;15.10;99.90
32614;DHT22;19031;51.400;6.770;2022-11-25T10:24:48;15.90;99.90
32614;DHT22;19031;51.400;6.770;2022-11-25T10:27:21;16.50;99.90
32614;DHT22;19031;51.400;6.770;2022-11-25T10:29:52;16.70;99.90
32614;DHT22;19031;51.400;6.770;2022-11-25T10:32:22;16.80;99.90
32614;DHT22;19031;51.400;6.770;2022-11-25T10:34:51;17.40;99.90
32614;DHT22;19031;51.400;6.770;2022-11-25T10:37:22;18.00;99.90
32614;DHT22;19031;51.400;6.770;2022-11-25T10:39:49;18.50;99.90
32614;DHT22;19031;51.400;6.770;2022-11-25T10:42:19;18.50;99.90
32614;DHT22;19031;51.400;6.770;2022-11-25T10:44:45;17.70;99.90
32614;DHT22;19031;51.400;6.770;2022-11-25T10:50:11;16.00;99.90
32614;DHT22;19031;51.400;6.770;2022-11-25T10:52:39;15.20;99.90
32614;DHT22;19031;51.400;6.770;2022-11-25T10:55:09;14.60;99.90
32614;DHT22;19031;51.400;6.770;2022-11-25T10:57:35;14.20;99.90
32614;DHT22;19031;51.400;6.770;2022-11-25T11:00:01;13.70;99.90
32614;DHT22;19031;51.400;6.770;2022-11-25T11:02:29;13.40;99.90
32614;DHT22;19031;51.400;6.770;2022-11-25T11:07:25;13.10;99.90
32614;DHT22;19031;51.400;6.770;2022-11-25T11:09:51;12.90;99.90
32614;DHT22;19031;51.400;6.770;2022-11-25T11:14:42;12.60;99.90
32614;DHT22;19031;51.400;6.770;2022-11-25T11:17:19;12.60;99.90
32614;DHT22;19031;51.400;6.770;2022-11-25T11:19:48;12.50;99.90
32614;DHT22;19031;51.400;6.770;2022-11-25T11:22:23;12.40;99.90
32614;DHT22;19031;51.400;6.770;2022-11-25T11:24:50;12.40;99.90
32614;DHT22;19031;51.400;6.770;2022-11-25T11:27:29;12.40;99.90
32614;DHT22;19031;51.400;6.770;2022-11-25T11:30:13;12.20;99.90
32614;DHT22;19031;51.400;6.770;2022-11-25T11:32:41;12.10;99.90
32614;DHT22;19031;51.400;6.770;2022-11-25T11:37:46;12.00;99.90
32614;DHT22;19031;51.400;6.770;2022-11-25T11:40:24;11.90;99.90
32614;DHT22;19031;51.400;6.770;2022-11-25T11:48:02;12.00;99.90
32614;DHT22;19031;51.400;6.770;2022-11-25T11:50:36;12.00;99.90
32614;DHT22;19031;51.400;6.770;2022-11-25T12:00:39;12.00;99.90
32614;DHT22;19031;51.400;6.770;2022-11-25T12:03:19;12.10;99.90
32614;DHT22;19031;51.400;6.770;2022-11-25T12:05:46;12.10;99.90
32614;DHT22;19031;51.400;6.770;2022-11-25T12:08:30;12.10;99.90
32614;DHT22;19031;51.400;6.770;2022-11-25T12:11:02;12.00;99.90
32614;DHT22;19031;51.400;6.770;2022-11-25T12:15:55;12.00;99.90
32614;DHT22;19031;51.400;6.770;2022-11-25T12:20:53;12.10;99.90
32614;DHT22;19031;51.400;6.770;2022-11-25T12:26:09;12.20;99.90
32614;DHT22;19031;51.400;6.770;2022-11-25T12:28:37;12.30;99.90
32614;DHT22;19031;51.400;6.770;2022-11-25T12:31:14;12.30;99.90
32614;DHT22;19031;51.400;6.770;2022-11-25T12:36:11;12.50;99.90
32614;DHT22;19031;51.400;6.770;2022-11-25T12:38:59;12.70;99.90
32614;DHT22;19031;51.400;6.770;2022-11-25T12:43:53;12.70;99.90
32614;DHT22;19031;51.400;6.770;2022-11-25T12:46:34;12.70;99.90
32614;DHT22;19031;51.400;6.770;2022-11-25T12:48:59;12.50;99.90
32614;DHT22;19031;51.400;6.770;2022-11-25T12:51:35;12.50;99.90
32614;DHT22;19031;51.400;6.770;2022-11-25T12:54:28;12.40;99.90
32614;DHT22;19031;51.400;6.770;2022-11-25T13:02:18;12.30;99.90
32614;DHT22;19031;51.400;6.770;2022-11-25T13:04:57;12.20;99.90
32614;DHT22;19031;51.400;6.770;2022-11-25T13:07:35;12.20;99.90
32614;DHT22;19031;51.400;6.770;2022-11-25T13:10:17;12.10;99.90
32614;DHT22;19031;51.400;6.770;2022-11-25T13:13:31;12.00;99.90
32614;DHT22;19031;51.400;6.770;2022-11-25T13:15:31;12.00;99.90
32614;DHT22;19031;51.400;6.770;2022-11-25T13:18:00;11.90;99.90
32614;DHT22;19031;51.400;6.770;2022-11-25T13:25:29;12.10;99.90
32614;DHT22;19031;51.400;6.770;2022-11-25T13:27:55;12.20;99.90
32614;DHT22;19031;51.400;6.770;2022-11-25T13:32:55;12.20;99.90
32614;DHT22;19031;51.400;6.770;2022-11-25T13:37:47;12.30;99.90
32614;DHT22;19031;51.400;6.770;2022-11-25T13:42:47;12.30;99.90
32614;DHT22;19031;51.400;6.770;2022-11-25T13:45:32;12.20;99.90
32614;DHT22;19031;51.400;6.770;2022-11-25T13:50:30;12.20;99.90
32614;DHT22;19031;51.400;6.770;2022-11-25T13:52:56;12.10;99.90
32614;DHT22;19031;51.400;6.770;2022-11-25T13:55:23;12.10;99.90
32614;DHT22;19031;51.400;6.770;2022-11-25T13:58:04;12.20;99.90
32614;DHT22;19031;51.400;6.770;2022-11-25T14:02:58;12.20;99.90
32614;DHT22;19031;51.400;6.770;2022-11-25T14:05:50;12.20;99.90
32614;DHT22;19031;51.400;6.770;2022-11-25T14:08:25;12.10;99.90
32614;DHT22;19031;51.400;6.770;2022-11-25T14:11:16;12.20;99.90
32614;DHT22;19031;51.400;6.770;2022-11-25T14:16:32;12.10;99.90
32614;DHT22;19031;51.400;6.770;2022-11-25T14:26:59;12.10;99.90
32614;DHT22;19031;51.400;6.770;2022-11-25T14:31:54;12.00;99.90
32614;DHT22;19031;51.400;6.770;2022-11-25T14:34:24;12.00;99.90
32614;DHT22;19031;51.400;6.770;2022-11-25T14:36:52;11.90;99.90
32614;DHT22;19031;51.400;6.770;2022-11-25T14:39:22;11.90;99.90
32614;DHT22;19031;51.400;6.770;2022-11-25T14:41:51;11.90;99.90
32614;DHT22;19031;51.400;6.770;2022-11-25T14:44:24;11.90;99.90
32614;DHT22;19031;51.400;6.770;2022-11-25T14:46:54;11.90;99.90
32614;DHT22;19031;51.400;6.770;2022-11-25T14:49:20;11.90;99.90
32614;DHT22;19031;51.400;6.770;2022-11-25T14:51:50;11.90;99.90
32614;DHT22;19031;51.400;6.770;2022-11-25T14:54:16;11.80;99.90
32614;DHT22;19031;51.400;6.770;2022-11-25T14:56:42;11.80;99.90
32614;DHT22;19031;51.400;6.770;2022-11-25T14:59:08;11.70;99.90
32614;DHT22;19031;51.400;6.770;2022-11-25T15:01:35;11.80;99.90
32614;DHT22;19031;51.400;6.770;2022-11-25T15:06:36;11.80;99.90
32614;DHT22;19031;51.400;6.770;2022-11-25T15:09:03;11.80;99.90
32614;DHT22;19031;51.400;6.770;2022-11-25T15:11:39;11.70;99.90
32614;DHT22;19031;51.400;6.770;2022-11-25T15:14:05;11.70;99.90
32614;DHT22;19031;51.400;6.770;2022-11-25T15:16:34;11.80;99.90
32614;DHT22;19031;51.400;6.770;2022-11-25T15:19:04;11.70;99.90
32614;DHT22;19031;51.400;6.770;2022-11-25T15:21:37;11.70;99.90
32614;DHT22;19031;51.400;6.770;2022-11-25T15:24:03;11.70;99.90
32614;DHT22;19031;51.400;6.770;2022-11-25T15:26:30;11.70;99.90
32614;DHT22;19031;51.400;6.770;2022-11-25T15:28:56;11.60;99.90
32614;DHT22;19031;51.400;6.770;2022-11-25T15:31:27;11.60;99.90
32614;DHT22;19031;51.400;6.770;2022-11-25T15:33:54;11.60;99.90
32614;DHT22;19031;51.400;6.770;2022-11-25T15:36:21;11.60;99.90
32614;DHT22;19031;51.400;6.770;2022-11-25T15:38:46;11.50;99.90
32614;DHT22;19031;51.400;6.770;2022-11-25T15:43:50;11.40;99.90
32614;DHT22;19031;51.400;6.770;2022-11-25T15:46:17;11.30;99.90
32614;DHT22;19031;51.400;6.770;2022-11-25T15:48:44;11.40;99.90
32614;DHT22;19031;51.400;6.770;2022-11-25T15:53:55;11.40;99.90
32614;DHT22;19031;51.400;6.770;2022-11-25T15:56:25;11.30;99.90
32614;DHT22;19031;51.400;6.770;2022-11-25T15:58:51;11.30;99.90
32614;DHT22;19031;51.400;6.770;2022-11-25T16:03:42;11.30;99.90
32614;DHT22;19031;51.400;6.770;2022-11-25T16:06:18;11.40;99.90
32614;DHT22;19031;51.400;6.770;2022-11-25T16:08:50;11.30;99.90
32614;DHT22;19031;51.400;6.770;2022-11-25T16:11:16;11.30;99.90
32614;DHT22;19031;51.400;6.770;2022-11-25T16:13:44;11.40;99.90
32614;DHT22;19031;51.400;6.770;2022-11-25T16:16:14;11.30;99.90
32614;DHT22;19031;51.400;6.770;2022-11-25T16:21:47;11.20;99.90
32614;DHT22;19031;51.400;6.770;2022-11-25T16:26:33;11.20;99.90
32614;DHT22;19031;51.400;6.770;2022-11-25T16:29:00;11.20;99.90
32614;DHT22;19031;51.400;6.770;2022-11-25T16:31:26;11.20;99.90
32614;DHT22;19031;51.400;6.770;2022-11-25T16:33:53;11.20;99.90
32614;DHT22;19031;51.400;6.770;2022-11-25T16:36:19;11.10;99.90
32614;DHT22;19031;51.400;6.770;2022-11-25T16:38:44;11.10;99.90
32614;DHT22;19031;51.400;6.770;2022-11-25T16:41:20;11.20;99.90
32614;DHT22;19031;51.400;6.770;2022-11-25T16:43:46;11.20;99.90
32614;DHT22;19031;51.400;6.770;2022-11-25T16:46:16;11.10;99.90
32614;DHT22;19031;51.400;6.770;2022-11-25T16:48:42;11.00;99.90
32614;DHT22;19031;51.400;6.770;2022-11-25T16:51:09;11.00;99.90
32614;DHT22;19031;51.400;6.770;2022-11-25T16:53:38;11.00;99.90
32614;DHT22;19031;51.400;6.770;2022-11-25T16:56:03;11.00;99.90
32614;DHT22;19031;51.400;6.770;2022-11-25T16:58:29;10.90;99.90
32614;DHT22;19031;51.400;6.770;2022-11-25T17:00:54;10.90;99.90
32614;DHT22;19031;51.400;6.770;2022-11-25T17:03:20;10.80;99.90
32614;DHT22;19031;51.400;6.770;2022-11-25T17:05:48;10.70;99.90
32614;DHT22;19031;51.400;6.770;2022-11-25T17:08:13;10.60;99.90
32614;DHT22;19031;51.400;6.770;2022-11-25T17:10:39;10.70;99.90
32614;DHT22;19031;51.400;6.770;2022-11-25T17:13:05;10.50;99.90
32614;DHT22;19031;51.400;6.770;2022-11-25T17:15:32;10.50;99.90
32614;DHT22;19031;51.400;6.770;2022-11-25T17:17:59;10.50;99.90
32614;DHT22;19031;51.400;6.770;2022-11-25T17:20:25;10.60;99.90
32614;DHT22;19031;51.400;6.770;2022-11-25T17:22:51;10.60;99.90
32614;DHT22;19031;51.400;6.770;2022-11-25T17:25:16;10.50;99.90
32614;DHT22;19031;51.400;6.770;2022-11-25T17:27:42;10.50;99.90